sensor_id;sensor_type;location;lat;lon;timestamp;pressure;altitude;pressure_sealevel;temperature;humidity
80482;BME280;69797;43.864;21.410;2024-03-23T00:55:41;100070.31;;;7.33;55.67
80482;BME280;69797;43.864;21.410;2024-03-23T00:58:07;100056.00;;;7.17;55.37
80482;BME280;69797;43.864;21.410;2024-03-23T01:00:33;100065.22;;;7.23;55.62
80482;BME280;69797;43.864;21.410;2024-03-23T01:02:59;100057.06;;;7.16;55.01
80482;BME280;69797;43.864;21.410;2024-03-23T01:05:25;100034.34;;;7.03;55.69
80482;BME280;69797;43.864;21.410;2024-03-23T01:07:50;100067.31;;;7.14;56.54
80482;BME280;69797;43.864;21.410;2024-03-23T01:10:16;100050.66;;;6.96;56.05
80482;BME280;69797;43.864;21.410;2024-03-23T01:12:42;100061.38;;;7.04;56.06
80482;BME280;69797;43.864;21.410;2024-03-23T01:15:08;100066.50;;;7.20;56.31
80482;BME280;69797;43.864;21.410;2024-03-23T01:17:34;100058.97;;;7.29;56.19
80482;BME280;69797;43.864;21.410;2024-03-23T01:20:00;100045.75;;;7.26;56.11
80482;BME280;69797;43.864;21.410;2024-03-23T01:22:26;100042.00;;;7.27;55.58
80482;BME280;69797;43.864;21.410;2024-03-23T01:24:51;100051.25;;;7.39;55.52
80482;BME280;69797;43.864;21.410;2024-03-23T01:27:17;100049.34;;;7.33;56.09
80482;BME280;69797;43.864;21.410;2024-03-23T01:29:43;100045.34;;;7.29;55.74
80482;BME280;69797;43.864;21.410;2024-03-23T01:32:09;100049.13;;;7.28;56.12
80482;BME280;69797;43.864;21.410;2024-03-23T01:34:35;100060.66;;;7.30;55.95
80482;BME280;69797;43.864;21.410;2024-03-23T01:37:01;100057.91;;;7.30;56.14
80482;BME280;69797;43.864;21.410;2024-03-23T01:39:27;100043.44;;;7.23;56.09
80482;BME280;69797;43.864;21.410;2024-03-23T01:41:53;100050.59;;;7.24;55.86
80482;BME280;69797;43.864;21.410;2024-03-23T01:44:18;100053.31;;;7.24;55.35
80482;BME280;69797;43.864;21.410;2024-03-23T01:46:44;100054.56;;;7.28;56.17
80482;BME280;69797;43.864;21.410;2024-03-23T01:49:11;100054.34;;;7.23;55.69
80482;BME280;69797;43.864;21.410;2024-03-23T01:51:37;100054.97;;;7.25;55.78
80482;BME280;69797;43.864;21.410;2024-03-23T01:54:03;100051.41;;;7.25;56.62
80482;BME280;69797;43.864;21.410;2024-03-23T01:56:31;100038.78;;;7.10;56.48
80482;BME280;69797;43.864;21.410;2024-03-23T01:58:58;100052.63;;;7.15;56.64
80482;BME280;69797;43.864;21.410;2024-03-23T02:01:24;100045.91;;;7.11;56.75
80482;BME280;69797;43.864;21.410;2024-03-23T02:03:50;100038.09;;;7.02;56.23
80482;BME280;69797;43.864;21.410;2024-03-23T02:06:16;100038.31;;;7.00;56.75
80482;BME280;69797;43.864;21.410;2024-03-23T02:08:43;100042.94;;;7.00;56.64
80482;BME280;69797;43.864;21.410;2024-03-23T02:11:09;100039.38;;;6.99;57.60
80482;BME280;69797;43.864;21.410;2024-03-23T02:13:35;100053.56;;;6.94;57.39
80482;BME280;69797;43.864;21.410;2024-03-23T02:16:01;100029.84;;;6.82;56.76
80482;BME280;69797;43.864;21.410;2024-03-23T02:18:27;100028.63;;;6.84;56.97
80482;BME280;69797;43.864;21.410;2024-03-23T02:20:53;100049.00;;;6.95;57.37
80482;BME280;69797;43.864;21.410;2024-03-23T02:23:19;100003.78;;;6.66;57.37
80482;BME280;69797;43.864;21.410;2024-03-23T02:25:45;100030.50;;;6.90;56.50
80482;BME280;69797;43.864;21.410;2024-03-23T02:28:11;100033.63;;;6.87;57.05
80482;BME280;69797;43.864;21.410;2024-03-23T02:30:37;100035.94;;;6.84;57.32
80482;BME280;69797;43.864;21.410;2024-03-23T02:33:03;100019.31;;;6.72;57.04
80482;BME280;69797;43.864;21.410;2024-03-23T02:35:29;100033.19;;;6.84;56.95
80482;BME280;69797;43.864;21.410;2024-03-23T02:37:55;100013.69;;;6.73;56.75
80482;BME280;69797;43.864;21.410;2024-03-23T02:40:25;100038.47;;;6.85;56.01
80482;BME280;69797;43.864;21.410;2024-03-23T02:42:52;100042.47;;;6.89;56.46
80482;BME280;69797;43.864;21.410;2024-03-23T02:45:18;100039.72;;;6.89;57.00
80482;BME280;69797;43.864;21.410;2024-03-23T02:47:44;100028.59;;;6.78;57.17
80482;BME280;69797;43.864;21.410;2024-03-23T02:50:09;100012.78;;;6.60;56.87
80482;BME280;69797;43.864;21.410;2024-03-23T02:52:36;100035.25;;;6.75;57.21
80482;BME280;69797;43.864;21.410;2024-03-23T02:55:03;100023.28;;;6.69;57.29
80482;BME280;69797;43.864;21.410;2024-03-23T02:57:29;100033.38;;;6.76;57.06
80482;BME280;69797;43.864;21.410;2024-03-23T02:59:55;100006.94;;;6.63;57.40
80482;BME280;69797;43.864;21.410;2024-03-23T03:02:21;100032.94;;;6.72;57.70
80482;BME280;69797;43.864;21.410;2024-03-23T03:04:47;100009.81;;;6.55;58.29
80482;BME280;69797;43.864;21.410;2024-03-23T03:07:13;100025.47;;;6.46;58.73
80482;BME280;69797;43.864;21.410;2024-03-23T03:09:39;100011.97;;;6.31;59.11
80482;BME280;69797;43.864;21.410;2024-03-23T03:12:06;100019.09;;;6.32;58.91
80482;BME280;69797;43.864;21.410;2024-03-23T03:14:32;100031.91;;;6.38;58.60
80482;BME280;69797;43.864;21.410;2024-03-23T03:16:58;100019.13;;;6.39;58.31
80482;BME280;69797;43.864;21.410;2024-03-23T03:19:23;100018.53;;;6.43;58.36
80482;BME280;69797;43.864;21.410;2024-03-23T03:21:49;100025.91;;;6.49;58.56
80482;BME280;69797;43.864;21.410;2024-03-23T03:24:15;100024.63;;;6.45;58.49
80482;BME280;69797;43.864;21.410;2024-03-23T03:26:42;100003.41;;;6.34;58.33
80482;BME280;69797;43.864;21.410;2024-03-23T03:29:08;100004.19;;;6.28;59.28
80482;BME280;69797;43.864;21.410;2024-03-23T03:31:34;100011.97;;;6.31;60.13
80482;BME280;69797;43.864;21.410;2024-03-23T03:34:00;100024.53;;;6.32;59.69
80482;BME280;69797;43.864;21.410;2024-03-23T03:36:25;100013.41;;;6.27;59.63
80482;BME280;69797;43.864;21.410;2024-03-23T03:38:51;100022.41;;;6.28;59.85
80482;BME280;69797;43.864;21.410;2024-03-23T03:41:18;100001.59;;;6.13;60.11
80482;BME280;69797;43.864;21.410;2024-03-23T03:43:44;99985.16;;;6.00;60.47
80482;BME280;69797;43.864;21.410;2024-03-23T03:46:10;100000.69;;;6.06;61.22
80482;BME280;69797;43.864;21.410;2024-03-23T03:48:36;99994.44;;;6.12;61.16
80482;BME280;69797;43.864;21.410;2024-03-23T03:51:03;100010.81;;;6.19;60.31
80482;BME280;69797;43.864;21.410;2024-03-23T03:53:29;99986.66;;;6.03;61.71
80482;BME280;69797;43.864;21.410;2024-03-23T03:55:56;99985.53;;;5.97;61.51
80482;BME280;69797;43.864;21.410;2024-03-23T03:58:22;99969.06;;;5.77;61.94
80482;BME280;69797;43.864;21.410;2024-03-23T04:00:48;99998.41;;;5.88;61.42
80482;BME280;69797;43.864;21.410;2024-03-23T04:03:13;99992.16;;;5.88;61.18
80482;BME280;69797;43.864;21.410;2024-03-23T04:05:39;100002.16;;;5.87;61.32
80482;BME280;69797;43.864;21.410;2024-03-23T04:08:06;99996.94;;;5.86;61.57
80482;BME280;69797;43.864;21.410;2024-03-23T04:10:32;99977.59;;;5.74;60.77
80482;BME280;69797;43.864;21.410;2024-03-23T04:12:58;99992.72;;;5.83;60.12
80482;BME280;69797;43.864;21.410;2024-03-23T04:15:24;99997.91;;;5.78;61.04
80482;BME280;69797;43.864;21.410;2024-03-23T04:17:50;99992.03;;;5.74;61.68
80482;BME280;69797;43.864;21.410;2024-03-23T04:20:16;99980.41;;;5.59;61.82
80482;BME280;69797;43.864;21.410;2024-03-23T04:22:43;100011.66;;;5.70;62.69
80482;BME280;69797;43.864;21.410;2024-03-23T04:25:09;99992.72;;;5.62;62.39
80482;BME280;69797;43.864;21.410;2024-03-23T04:27:39;99980.56;;;5.58;63.22
80482;BME280;69797;43.864;21.410;2024-03-23T04:30:06;99985.69;;;5.67;62.47
80482;BME280;69797;43.864;21.410;2024-03-23T04:32:39;99985.31;;;5.70;63.15
80482;BME280;69797;43.864;21.410;2024-03-23T04:35:05;99980.25;;;5.67;62.75
80482;BME280;69797;43.864;21.410;2024-03-23T04:37:32;99992.09;;;5.81;61.57
80482;BME280;69797;43.864;21.410;2024-03-23T04:40:00;99988.25;;;5.75;62.04
80482;BME280;69797;43.864;21.410;2024-03-23T04:42:27;99997.75;;;5.86;62.09
80482;BME280;69797;43.864;21.410;2024-03-23T04:44:53;99964.63;;;5.76;62.16
80482;BME280;69797;43.864;21.410;2024-03-23T04:47:19;99996.94;;;6.07;61.52
80482;BME280;69797;43.864;21.410;2024-03-23T04:49:45;99998.31;;;6.24;61.54
80482;BME280;69797;43.864;21.410;2024-03-23T04:52:11;99978.94;;;6.41;60.93
80482;BME280;69797;43.864;21.410;2024-03-23T04:54:37;99998.22;;;6.81;59.88
80482;BME280;69797;43.864;21.410;2024-03-23T04:57:06;99972.13;;;7.00;59.54
80482;BME280;69797;43.864;21.410;2024-03-23T04:59:32;99986.06;;;7.31;58.89
80482;BME280;69797;43.864;21.410;2024-03-23T05:01:58;99989.03;;;7.76;57.96
80482;BME280;69797;43.864;21.410;2024-03-23T05:04:26;99995.13;;;8.18;55.76
80482;BME280;69797;43.864;21.410;2024-03-23T05:06:52;99989.66;;;8.58;56.22
80482;BME280;69797;43.864;21.410;2024-03-23T05:09:18;99988.03;;;9.02;53.79
80482;BME280;69797;43.864;21.410;2024-03-23T05:11:44;99972.44;;;9.47;53.82
80482;BME280;69797;43.864;21.410;2024-03-23T05:14:12;99969.47;;;10.05;51.88
80482;BME280;69797;43.864;21.410;2024-03-23T05:16:38;99983.88;;;10.81;50.86
80482;BME280;69797;43.864;21.410;2024-03-23T05:19:04;99970.91;;;11.25;48.49
80482;BME280;69797;43.864;21.410;2024-03-23T05:21:29;99967.44;;;11.60;48.23
80482;BME280;69797;43.864;21.410;2024-03-23T05:23:55;99976.31;;;12.15;46.28
80482;BME280;69797;43.864;21.410;2024-03-23T05:26:22;99972.72;;;12.62;45.01
80482;BME280;69797;43.864;21.410;2024-03-23T05:28:48;99984.44;;;13.09;45.42
80482;BME280;69797;43.864;21.410;2024-03-23T05:31:27;99979.28;;;13.53;46.19
80482;BME280;69797;43.864;21.410;2024-03-23T05:33:53;99970.00;;;14.05;45.17
80482;BME280;69797;43.864;21.410;2024-03-23T05:36:20;99982.00;;;14.66;44.07
80482;BME280;69797;43.864;21.410;2024-03-23T05:38:46;99980.94;;;15.33;43.69
80482;BME280;69797;43.864;21.410;2024-03-23T05:41:12;99971.50;;;16.10;41.72
80482;BME280;69797;43.864;21.410;2024-03-23T05:43:38;99974.69;;;16.71;40.48
80482;BME280;69797;43.864;21.410;2024-03-23T05:46:04;99976.03;;;17.11;41.51
80482;BME280;69797;43.864;21.410;2024-03-23T05:48:31;99987.03;;;17.74;37.02
80482;BME280;69797;43.864;21.410;2024-03-23T05:50:57;99987.63;;;18.32;37.53
80482;BME280;69797;43.864;21.410;2024-03-23T05:53:24;99967.66;;;18.45;38.00
80482;BME280;69797;43.864;21.410;2024-03-23T05:55:50;99973.13;;;18.91;37.57
80482;BME280;69797;43.864;21.410;2024-03-23T05:58:19;99991.84;;;19.30;37.46
80482;BME280;69797;43.864;21.410;2024-03-23T06:00:45;99987.97;;;19.86;35.05
80482;BME280;69797;43.864;21.410;2024-03-23T06:03:11;99980.88;;;20.38;35.54
80482;BME280;69797;43.864;21.410;2024-03-23T06:05:37;99980.75;;;20.48;35.68
80482;BME280;69797;43.864;21.410;2024-03-23T06:08:04;99984.22;;;20.06;35.86
80482;BME280;69797;43.864;21.410;2024-03-23T06:10:30;99980.06;;;20.03;32.96
80482;BME280;69797;43.864;21.410;2024-03-23T06:12:57;99986.56;;;20.57;32.58
80482;BME280;69797;43.864;21.410;2024-03-23T06:15:24;99979.97;;;21.01;35.42
80482;BME280;69797;43.864;21.410;2024-03-23T06:17:53;99991.03;;;21.73;33.40
80482;BME280;69797;43.864;21.410;2024-03-23T06:20:18;99988.28;;;22.43;35.19
80482;BME280;69797;43.864;21.410;2024-03-23T06:22:44;99979.44;;;22.83;33.96
80482;BME280;69797;43.864;21.410;2024-03-23T06:25:10;99987.22;;;23.41;34.38
80482;BME280;69797;43.864;21.410;2024-03-23T06:27:38;99963.59;;;23.61;30.53
80482;BME280;69797;43.864;21.410;2024-03-23T06:30:05;99970.41;;;24.05;30.54
80482;BME280;69797;43.864;21.410;2024-03-23T06:32:32;99983.94;;;24.34;32.97
80482;BME280;69797;43.864;21.410;2024-03-23T06:34:57;99972.13;;;24.59;33.59
80482;BME280;69797;43.864;21.410;2024-03-23T06:37:23;99975.91;;;24.95;33.04
80482;BME280;69797;43.864;21.410;2024-03-23T06:39:49;99965.97;;;25.20;32.63
80482;BME280;69797;43.864;21.410;2024-03-23T06:42:15;99958.78;;;25.45;32.34
80482;BME280;69797;43.864;21.410;2024-03-23T06:44:40;99967.59;;;25.95;32.64
80482;BME280;69797;43.864;21.410;2024-03-23T06:47:06;99965.97;;;26.12;30.25
80482;BME280;69797;43.864;21.410;2024-03-23T06:49:32;99975.66;;;26.49;31.98
80482;BME280;69797;43.864;21.410;2024-03-23T06:51:58;99980.44;;;27.13;31.38
80482;BME280;69797;43.864;21.410;2024-03-23T06:54:24;99972.75;;;27.81;30.98
80482;BME280;69797;43.864;21.410;2024-03-23T06:56:50;99980.41;;;28.35;30.46
80482;BME280;69797;43.864;21.410;2024-03-23T06:59:16;99970.09;;;28.84;30.27
80482;BME280;69797;43.864;21.410;2024-03-23T07:01:41;99950.78;;;29.20;29.59
80482;BME280;69797;43.864;21.410;2024-03-23T07:04:07;99966.25;;;29.75;29.23
80482;BME280;69797;43.864;21.410;2024-03-23T07:06:33;99948.56;;;30.30;29.16
80482;BME280;69797;43.864;21.410;2024-03-23T07:08:59;99965.06;;;30.88;28.47
80482;BME280;69797;43.864;21.410;2024-03-23T07:11:26;99963.03;;;31.04;27.70
80482;BME280;69797;43.864;21.410;2024-03-23T07:13:53;99939.97;;;31.02;28.11
80482;BME280;69797;43.864;21.410;2024-03-23T07:16:22;99950.91;;;31.71;29.82
80482;BME280;69797;43.864;21.410;2024-03-23T07:18:50;99952.09;;;32.24;30.77
80482;BME280;69797;43.864;21.410;2024-03-23T07:21:15;99943.91;;;32.62;30.05
80482;BME280;69797;43.864;21.410;2024-03-23T07:23:44;99940.47;;;32.95;26.81
80482;BME280;69797;43.864;21.410;2024-03-23T07:26:10;99938.16;;;33.27;29.02
80482;BME280;69797;43.864;21.410;2024-03-23T07:28:36;99932.03;;;33.25;28.47
80482;BME280;69797;43.864;21.410;2024-03-23T07:31:06;99913.75;;;33.23;27.66
80482;BME280;69797;43.864;21.410;2024-03-23T07:33:35;99937.03;;;33.58;25.53
80482;BME280;69797;43.864;21.410;2024-03-23T07:36:01;99937.81;;;33.85;27.21
80482;BME280;69797;43.864;21.410;2024-03-23T07:38:28;99930.63;;;34.25;26.79
80482;BME280;69797;43.864;21.410;2024-03-23T07:41:11;99913.16;;;34.60;23.90
80482;BME280;69797;43.864;21.410;2024-03-23T07:43:38;99924.41;;;34.94;25.76
80482;BME280;69797;43.864;21.410;2024-03-23T07:46:04;99909.94;;;34.66;25.43
80482;BME280;69797;43.864;21.410;2024-03-23T07:48:31;99915.56;;;34.58;25.36
80482;BME280;69797;43.864;21.410;2024-03-23T07:51:07;99916.28;;;34.52;23.39
80482;BME280;69797;43.864;21.410;2024-03-23T07:53:33;99908.16;;;34.17;24.36
80482;BME280;69797;43.864;21.410;2024-03-23T07:56:01;99908.69;;;33.92;26.42
80482;BME280;69797;43.864;21.410;2024-03-23T07:58:27;99918.44;;;33.95;26.31
80482;BME280;69797;43.864;21.410;2024-03-23T08:00:55;99903.25;;;34.13;24.14
80482;BME280;69797;43.864;21.410;2024-03-23T08:03:21;99897.72;;;34.28;25.17
80482;BME280;69797;43.864;21.410;2024-03-23T08:05:47;99904.63;;;34.27;24.96
80482;BME280;69797;43.864;21.410;2024-03-23T08:08:13;99909.47;;;34.23;25.12
80482;BME280;69797;43.864;21.410;2024-03-23T08:10:49;99900.22;;;34.33;22.65
80482;BME280;69797;43.864;21.410;2024-03-23T08:13:15;99902.50;;;34.54;24.76
80482;BME280;69797;43.864;21.410;2024-03-23T08:15:41;99907.41;;;34.57;23.72
80482;BME280;69797;43.864;21.410;2024-03-23T08:18:07;99892.94;;;34.73;24.64
80482;BME280;69797;43.864;21.410;2024-03-23T08:20:33;99903.50;;;35.24;24.54
80482;BME280;69797;43.864;21.410;2024-03-23T08:22:59;99892.16;;;35.31;23.71
80482;BME280;69797;43.864;21.410;2024-03-23T08:25:25;99891.78;;;35.32;24.03
80482;BME280;69797;43.864;21.410;2024-03-23T08:27:51;99892.72;;;35.51;23.84
80482;BME280;69797;43.864;21.410;2024-03-23T08:30:16;99886.25;;;35.54;23.07
80482;BME280;69797;43.864;21.410;2024-03-23T08:32:42;99884.88;;;35.37;20.12
80482;BME280;69797;43.864;21.410;2024-03-23T08:35:08;99892.44;;;35.08;23.00
80482;BME280;69797;43.864;21.410;2024-03-23T08:37:35;99869.94;;;34.99;23.54
80482;BME280;69797;43.864;21.410;2024-03-23T08:40:00;99886.84;;;35.26;23.70
80482;BME280;69797;43.864;21.410;2024-03-23T08:42:26;99877.94;;;35.31;21.61
80482;BME280;69797;43.864;21.410;2024-03-23T08:44:52;99872.44;;;35.01;21.19
80482;BME280;69797;43.864;21.410;2024-03-23T08:47:18;99858.69;;;34.62;21.26
80482;BME280;69797;43.864;21.410;2024-03-23T08:49:44;99843.44;;;34.03;21.54
80482;BME280;69797;43.864;21.410;2024-03-23T08:52:10;99854.31;;;33.33;17.80
80482;BME280;69797;43.864;21.410;2024-03-23T08:54:36;99832.50;;;32.88;22.10
80482;BME280;69797;43.864;21.410;2024-03-23T08:57:02;99851.06;;;32.82;22.09
80482;BME280;69797;43.864;21.410;2024-03-23T08:59:28;99839.56;;;32.71;21.14
80482;BME280;69797;43.864;21.410;2024-03-23T09:01:53;99842.34;;;32.94;23.55
80482;BME280;69797;43.864;21.410;2024-03-23T09:04:19;99823.28;;;33.17;24.28
80482;BME280;69797;43.864;21.410;2024-03-23T09:06:45;99815.28;;;33.27;19.33
80482;BME280;69797;43.864;21.410;2024-03-23T09:09:11;99826.44;;;33.42;22.90
80482;BME280;69797;43.864;21.410;2024-03-23T09:11:37;99825.75;;;33.23;23.21
80482;BME280;69797;43.864;21.410;2024-03-23T09:14:03;99796.00;;;32.37;23.46
80482;BME280;69797;43.864;21.410;2024-03-23T09:16:29;99805.16;;;31.65;23.85
80482;BME280;69797;43.864;21.410;2024-03-23T09:18:55;99802.44;;;30.63;20.25
80482;BME280;69797;43.864;21.410;2024-03-23T09:21:20;99799.72;;;29.34;24.63
80482;BME280;69797;43.864;21.410;2024-03-23T09:23:46;99792.03;;;28.33;26.56
80482;BME280;69797;43.864;21.410;2024-03-23T09:26:12;99784.50;;;27.25;27.31
80482;BME280;69797;43.864;21.410;2024-03-23T09:28:38;99795.66;;;26.63;25.65
80482;BME280;69797;43.864;21.410;2024-03-23T09:31:04;99769.41;;;25.65;23.91
80482;BME280;69797;43.864;21.410;2024-03-23T09:33:30;99786.28;;;24.55;24.58
80482;BME280;69797;43.864;21.410;2024-03-23T09:35:56;99760.38;;;23.70;28.85
80482;BME280;69797;43.864;21.410;2024-03-23T09:38:23;99762.59;;;23.37;28.52
80482;BME280;69797;43.864;21.410;2024-03-23T09:40:53;99763.88;;;22.94;29.25
80482;BME280;69797;43.864;21.410;2024-03-23T09:43:19;99756.06;;;22.69;32.98
80482;BME280;69797;43.864;21.410;2024-03-23T09:45:46;99744.09;;;22.55;31.20
80482;BME280;69797;43.864;21.410;2024-03-23T09:48:12;99743.69;;;22.34;33.85
80482;BME280;69797;43.864;21.410;2024-03-23T09:50:41;99743.50;;;22.16;29.63
80482;BME280;69797;43.864;21.410;2024-03-23T09:53:08;99734.50;;;21.59;28.67
80482;BME280;69797;43.864;21.410;2024-03-23T09:55:35;99724.13;;;21.13;28.41
80482;BME280;69797;43.864;21.410;2024-03-23T09:58:04;99723.19;;;20.85;30.35
80482;BME280;69797;43.864;21.410;2024-03-23T10:00:34;99713.94;;;20.71;30.76
80482;BME280;69797;43.864;21.410;2024-03-23T10:03:01;99690.06;;;20.46;29.60
80482;BME280;69797;43.864;21.410;2024-03-23T10:05:30;99709.78;;;20.49;34.19
80482;BME280;69797;43.864;21.410;2024-03-23T10:08:28;99714.41;;;20.78;33.62
80482;BME280;69797;43.864;21.410;2024-03-23T10:10:54;99714.38;;;20.97;29.72
80482;BME280;69797;43.864;21.410;2024-03-23T10:13:27;99696.19;;;20.86;29.91
80482;BME280;69797;43.864;21.410;2024-03-23T10:15:58;99704.88;;;20.98;32.08
80482;BME280;69797;43.864;21.410;2024-03-23T10:18:25;99685.84;;;21.05;31.38
80482;BME280;69797;43.864;21.410;2024-03-23T10:21:06;99670.38;;;21.13;30.25
80482;BME280;69797;43.864;21.410;2024-03-23T10:23:34;99678.97;;;21.16;30.13
80482;BME280;69797;43.864;21.410;2024-03-23T10:26:24;99673.72;;;21.15;29.75
80482;BME280;69797;43.864;21.410;2024-03-23T10:29:02;99656.78;;;21.11;30.98
80482;BME280;69797;43.864;21.410;2024-03-23T10:31:33;99670.91;;;21.15;29.93
80482;BME280;69797;43.864;21.410;2024-03-23T10:34:03;99651.00;;;21.07;29.50
80482;BME280;69797;43.864;21.410;2024-03-23T10:36:30;99649.13;;;21.03;29.77
80482;BME280;69797;43.864;21.410;2024-03-23T10:38:56;99659.34;;;21.07;31.30
80482;BME280;69797;43.864;21.410;2024-03-23T10:41:27;99651.59;;;21.04;31.67
80482;BME280;69797;43.864;21.410;2024-03-23T10:43:55;99637.88;;;21.08;30.12
80482;BME280;69797;43.864;21.410;2024-03-23T10:46:23;99626.22;;;21.06;29.96
80482;BME280;69797;43.864;21.410;2024-03-23T10:48:48;99631.09;;;21.14;29.52
80482;BME280;69797;43.864;21.410;2024-03-23T10:51:14;99627.50;;;21.14;30.54
80482;BME280;69797;43.864;21.410;2024-03-23T10:53:40;99621.06;;;21.13;31.07
80482;BME280;69797;43.864;21.410;2024-03-23T10:56:07;99620.00;;;21.28;31.66
80482;BME280;69797;43.864;21.410;2024-03-23T10:58:45;99618.25;;;21.32;28.69
80482;BME280;69797;43.864;21.410;2024-03-23T11:01:12;99616.34;;;21.27;30.80
80482;BME280;69797;43.864;21.410;2024-03-23T11:03:40;99605.72;;;21.16;29.50
80482;BME280;69797;43.864;21.410;2024-03-23T11:06:10;99589.41;;;21.09;31.61
80482;BME280;69797;43.864;21.410;2024-03-23T11:08:37;99581.06;;;21.09;30.64
80482;BME280;69797;43.864;21.410;2024-03-23T11:11:20;99563.53;;;21.08;31.10
80482;BME280;69797;43.864;21.410;2024-03-23T11:13:49;99564.97;;;21.20;30.11
80482;BME280;69797;43.864;21.410;2024-03-23T11:16:28;99554.97;;;21.19;32.98
80482;BME280;69797;43.864;21.410;2024-03-23T11:19:35;99562.78;;;21.49;30.85
80482;BME280;69797;43.864;21.410;2024-03-23T11:22:05;99545.13;;;21.54;28.40
80482;BME280;69797;43.864;21.410;2024-03-23T11:24:31;99539.34;;;21.50;29.95
80482;BME280;69797;43.864;21.410;2024-03-23T11:26:57;99545.00;;;21.59;33.88
80482;BME280;69797;43.864;21.410;2024-03-23T11:29:29;99514.06;;;21.47;30.63
80482;BME280;69797;43.864;21.410;2024-03-23T11:31:55;99517.25;;;21.40;32.85
80482;BME280;69797;43.864;21.410;2024-03-23T11:34:22;99541.31;;;21.50;29.95
80482;BME280;69797;43.864;21.410;2024-03-23T11:36:48;99520.13;;;21.49;30.91
80482;BME280;69797;43.864;21.410;2024-03-23T11:39:15;99507.47;;;21.43;30.27
80482;BME280;69797;43.864;21.410;2024-03-23T11:41:52;99500.53;;;21.40;29.51
80482;BME280;69797;43.864;21.410;2024-03-23T11:44:27;99495.06;;;21.21;28.54
80482;BME280;69797;43.864;21.410;2024-03-23T11:46:53;99500.34;;;21.37;29.95
80482;BME280;69797;43.864;21.410;2024-03-23T11:49:23;99488.44;;;21.31;29.88
80482;BME280;69797;43.864;21.410;2024-03-23T11:51:50;99486.16;;;21.19;29.40
80482;BME280;69797;43.864;21.410;2024-03-23T11:54:16;99469.84;;;20.99;30.04
80482;BME280;69797;43.864;21.410;2024-03-23T11:56:58;99472.84;;;21.02;32.85
80482;BME280;69797;43.864;21.410;2024-03-23T11:59:39;99467.06;;;20.99;28.03
80482;BME280;69797;43.864;21.410;2024-03-23T12:02:11;99458.63;;;20.90;30.30
80482;BME280;69797;43.864;21.410;2024-03-23T12:04:38;99459.16;;;20.92;30.65
80482;BME280;69797;43.864;21.410;2024-03-23T12:07:15;99461.84;;;20.97;30.36
80482;BME280;69797;43.864;21.410;2024-03-23T12:09:41;99443.88;;;20.90;29.50
80482;BME280;69797;43.864;21.410;2024-03-23T12:12:14;99440.78;;;20.91;32.63
80482;BME280;69797;43.864;21.410;2024-03-23T12:14:42;99441.31;;;20.93;29.21
80482;BME280;69797;43.864;21.410;2024-03-23T12:17:14;99429.97;;;20.76;29.59
80482;BME280;69797;43.864;21.410;2024-03-23T12:19:41;99421.81;;;20.66;28.94
80482;BME280;69797;43.864;21.410;2024-03-23T12:22:08;99414.59;;;20.65;30.66
80482;BME280;69797;43.864;21.410;2024-03-23T12:24:34;99415.00;;;20.72;29.63
80482;BME280;69797;43.864;21.410;2024-03-23T12:27:04;99418.75;;;20.81;33.16
80482;BME280;69797;43.864;21.410;2024-03-23T12:29:33;99410.69;;;20.93;31.70
80482;BME280;69797;43.864;21.410;2024-03-23T12:32:02;99408.31;;;21.00;29.13
80482;BME280;69797;43.864;21.410;2024-03-23T12:34:28;99385.31;;;20.95;29.96
80482;BME280;69797;43.864;21.410;2024-03-23T12:36:56;99381.69;;;20.94;31.42
80482;BME280;69797;43.864;21.410;2024-03-23T12:39:22;99381.50;;;21.04;32.40
80482;BME280;69797;43.864;21.410;2024-03-23T12:41:51;99390.13;;;21.17;28.71
80482;BME280;69797;43.864;21.410;2024-03-23T12:44:18;99366.81;;;21.13;29.28
80482;BME280;69797;43.864;21.410;2024-03-23T12:46:44;99367.75;;;21.22;28.51
80482;BME280;69797;43.864;21.410;2024-03-23T12:49:10;99358.56;;;21.21;31.23
80482;BME280;69797;43.864;21.410;2024-03-23T12:51:36;99363.00;;;21.36;31.05
80482;BME280;69797;43.864;21.410;2024-03-23T12:54:02;99367.97;;;21.39;29.47
80482;BME280;69797;43.864;21.410;2024-03-23T12:56:28;99357.63;;;21.26;29.13
80482;BME280;69797;43.864;21.410;2024-03-23T12:58:55;99353.91;;;21.17;28.39
80482;BME280;69797;43.864;21.410;2024-03-23T13:01:26;99349.31;;;21.12;29.60
80482;BME280;69797;43.864;21.410;2024-03-23T13:03:52;99350.78;;;20.96;28.66
80482;BME280;69797;43.864;21.410;2024-03-23T13:06:18;99349.84;;;21.00;30.28
80482;BME280;69797;43.864;21.410;2024-03-23T13:08:45;99338.72;;;21.00;30.13
80482;BME280;69797;43.864;21.410;2024-03-23T13:11:12;99329.50;;;21.14;29.63
80482;BME280;69797;43.864;21.410;2024-03-23T13:13:38;99313.91;;;21.13;29.39
80482;BME280;69797;43.864;21.410;2024-03-23T13:16:04;99316.59;;;21.18;28.53
80482;BME280;69797;43.864;21.410;2024-03-23T13:18:31;99326.06;;;21.17;28.12
80482;BME280;69797;43.864;21.410;2024-03-23T13:20:58;99315.00;;;21.03;28.03
80482;BME280;69797;43.864;21.410;2024-03-23T13:23:23;99295.19;;;20.91;28.49
80482;BME280;69797;43.864;21.410;2024-03-23T13:25:53;99298.91;;;21.00;28.25
80482;BME280;69797;43.864;21.410;2024-03-23T13:28:20;99298.78;;;21.05;29.61
80482;BME280;69797;43.864;21.410;2024-03-23T13:30:53;99304.88;;;21.07;28.66
80482;BME280;69797;43.864;21.410;2024-03-23T13:33:19;99304.97;;;21.02;28.66
80482;BME280;69797;43.864;21.410;2024-03-23T13:35:55;99294.97;;;21.01;28.50
80482;BME280;69797;43.864;21.410;2024-03-23T13:38:22;99288.88;;;20.99;27.88
80482;BME280;69797;43.864;21.410;2024-03-23T13:43:20;99279.72;;;20.98;30.25
80482;BME280;69797;43.864;21.410;2024-03-23T13:45:47;99269.28;;;21.04;31.07
80482;BME280;69797;43.864;21.410;2024-03-23T13:48:15;99272.66;;;21.15;29.80